LFKF 221130Z AUTO 07004KT 010V100 9999 BKN034 17/09 Q1031 NOSIG

ElémentsDécodage
LFKF Station météo située sur l'aérodrome de FIGARI Sud-Corse
221130Z émis le 22 du mois à 11h30 UTC
AUTO Bulletin édité par un automate
07004KT vent du 070°, 04 noeuds
010V100 vent de direction variable entre 010° et 100°
9999 visibilité horizontale supérieure à 10 Km
BKN034 nuages morcelés (5/8 à 7/8) à 3400 pieds
17/09 température 17°C, point de rosée 09°C
 soit une humidité relative de 59%
Q1031 la pression au niveau de la mer (QNH) est de 1031 hPa
NOSIG Pas de changement significatif prévu au cours des deux heures suivant l'heure de l'observation